sensor_id;sensor_type;location;lat;lon;timestamp;P1;durP1;ratioP1;P2;durP2;ratioP2
59790;SDS011;47431;51.640;5.554;2023-09-12T00:01:03;75.22;;;44.33;;
59790;SDS011;47431;51.640;5.554;2023-09-12T00:03:30;71.07;;;42.03;;
59790;SDS011;47431;51.640;5.554;2023-09-12T00:05:56;72.65;;;42.28;;
59790;SDS011;47431;51.640;5.554;2023-09-12T00:08:23;74.70;;;42.88;;
59790;SDS011;47431;51.640;5.554;2023-09-12T00:10:59;74.60;;;42.58;;
59790;SDS011;47431;51.640;5.554;2023-09-12T00:13:35;68.18;;;42.03;;
59790;SDS011;47431;51.640;5.554;2023-09-12T00:16:01;64.20;;;41.10;;
59790;SDS011;47431;51.640;5.554;2023-09-12T00:18:26;68.78;;;39.90;;
59790;SDS011;47431;51.640;5.554;2023-09-12T00:20:52;70.70;;;41.53;;
59790;SDS011;47431;51.640;5.554;2023-09-12T00:23:18;52.83;;;36.50;;
59790;SDS011;47431;51.640;5.554;2023-09-12T00:25:45;67.25;;;40.05;;
59790;SDS011;47431;51.640;5.554;2023-09-12T00:28:10;57.95;;;37.70;;
59790;SDS011;47431;51.640;5.554;2023-09-12T00:30:36;57.83;;;35.97;;
59790;SDS011;47431;51.640;5.554;2023-09-12T00:33:01;56.53;;;35.85;;
59790;SDS011;47431;51.640;5.554;2023-09-12T00:35:26;71.07;;;41.00;;
59790;SDS011;47431;51.640;5.554;2023-09-12T00:37:52;71.03;;;41.38;;
59790;SDS011;47431;51.640;5.554;2023-09-12T00:40:17;76.85;;;43.95;;
59790;SDS011;47431;51.640;5.554;2023-09-12T00:42:43;66.22;;;41.53;;
59790;SDS011;47431;51.640;5.554;2023-09-12T00:45:08;71.60;;;39.40;;
59790;SDS011;47431;51.640;5.554;2023-09-12T00:47:34;67.88;;;38.45;;
59790;SDS011;47431;51.640;5.554;2023-09-12T00:50:01;77.65;;;43.22;;
59790;SDS011;47431;51.640;5.554;2023-09-12T00:52:28;63.42;;;39.30;;
59790;SDS011;47431;51.640;5.554;2023-09-12T00:54:54;64.28;;;38.78;;
59790;SDS011;47431;51.640;5.554;2023-09-12T00:57:23;64.90;;;39.90;;
59790;SDS011;47431;51.640;5.554;2023-09-12T00:59:49;71.88;;;41.17;;
59790;SDS011;47431;51.640;5.554;2023-09-12T01:02:16;64.88;;;37.08;;
59790;SDS011;47431;51.640;5.554;2023-09-12T01:04:43;73.00;;;38.45;;
59790;SDS011;47431;51.640;5.554;2023-09-12T01:07:08;78.47;;;39.40;;
59790;SDS011;47431;51.640;5.554;2023-09-12T01:09:34;75.35;;;39.45;;
59790;SDS011;47431;51.640;5.554;2023-09-12T01:12:00;67.00;;;36.70;;
59790;SDS011;47431;51.640;5.554;2023-09-12T01:14:28;71.13;;;37.00;;
59790;SDS011;47431;51.640;5.554;2023-09-12T01:16:54;75.68;;;37.08;;
59790;SDS011;47431;51.640;5.554;2023-09-12T01:19:19;63.13;;;35.60;;
59790;SDS011;47431;51.640;5.554;2023-09-12T01:29:57;145.80;;;39.20;;
59790;SDS011;47431;51.640;5.554;2023-09-12T01:32:28;157.23;;;31.38;;
59790;SDS011;47431;51.640;5.554;2023-09-12T01:34:54;64.43;;;33.78;;
59790;SDS011;47431;51.640;5.554;2023-09-12T01:37:20;51.50;;;31.80;;
59790;SDS011;47431;51.640;5.554;2023-09-12T01:39:45;60.78;;;35.03;;
59790;SDS011;47431;51.640;5.554;2023-09-12T01:42:11;53.83;;;30.52;;
59790;SDS011;47431;51.640;5.554;2023-09-12T01:44:41;55.00;;;32.45;;
59790;SDS011;47431;51.640;5.554;2023-09-12T01:47:09;65.75;;;31.60;;
59790;SDS011;47431;51.640;5.554;2023-09-12T01:49:37;58.30;;;31.80;;
59790;SDS011;47431;51.640;5.554;2023-09-12T01:52:05;94.72;;;36.97;;
59790;SDS011;47431;51.640;5.554;2023-09-12T01:54:31;45.80;;;27.90;;
59790;SDS011;47431;51.640;5.554;2023-09-12T01:56:58;75.50;;;31.55;;
59790;SDS011;47431;51.640;5.554;2023-09-12T01:59:24;112.63;;;34.40;;
59790;SDS011;47431;51.640;5.554;2023-09-12T02:01:50;73.63;;;26.98;;
59790;SDS011;47431;51.640;5.554;2023-09-12T02:04:16;63.80;;;26.55;;
59790;SDS011;47431;51.640;5.554;2023-09-12T02:06:41;67.97;;;30.27;;
59790;SDS011;47431;51.640;5.554;2023-09-12T02:09:07;67.07;;;33.97;;
59790;SDS011;47431;51.640;5.554;2023-09-12T02:11:32;82.15;;;42.33;;
59790;SDS011;47431;51.640;5.554;2023-09-12T02:13:58;74.78;;;42.42;;
59790;SDS011;47431;51.640;5.554;2023-09-12T02:16:24;88.80;;;44.20;;
59790;SDS011;47431;51.640;5.554;2023-09-12T02:18:50;85.20;;;43.70;;
59790;SDS011;47431;51.640;5.554;2023-09-12T02:21:15;73.72;;;42.22;;
59790;SDS011;47431;51.640;5.554;2023-09-12T02:23:41;87.45;;;43.63;;
59790;SDS011;47431;51.640;5.554;2023-09-12T02:26:07;66.65;;;39.53;;
59790;SDS011;47431;51.640;5.554;2023-09-12T02:28:32;81.07;;;38.03;;
59790;SDS011;47431;51.640;5.554;2023-09-12T02:30:58;71.22;;;39.22;;
59790;SDS011;47431;51.640;5.554;2023-09-12T02:33:23;69.65;;;38.90;;
59790;SDS011;47431;51.640;5.554;2023-09-12T02:35:48;61.38;;;35.45;;
59790;SDS011;47431;51.640;5.554;2023-09-12T02:38:14;98.45;;;39.92;;
59790;SDS011;47431;51.640;5.554;2023-09-12T02:40:39;117.20;;;39.55;;
59790;SDS011;47431;51.640;5.554;2023-09-12T02:43:04;78.70;;;33.72;;
59790;SDS011;47431;51.640;5.554;2023-09-12T02:45:30;56.67;;;30.92;;
59790;SDS011;47431;51.640;5.554;2023-09-12T02:47:55;55.13;;;29.65;;
59790;SDS011;47431;51.640;5.554;2023-09-12T02:50:21;44.08;;;27.15;;
59790;SDS011;47431;51.640;5.554;2023-09-12T02:52:46;49.30;;;29.75;;
59790;SDS011;47431;51.640;5.554;2023-09-12T02:55:12;56.55;;;26.92;;
59790;SDS011;47431;51.640;5.554;2023-09-12T02:57:37;28.23;;;21.38;;
59790;SDS011;47431;51.640;5.554;2023-09-12T03:00:03;38.85;;;24.50;;
59790;SDS011;47431;51.640;5.554;2023-09-12T03:02:32;27.92;;;21.52;;
59790;SDS011;47431;51.640;5.554;2023-09-12T03:04:57;41.05;;;23.15;;
59790;SDS011;47431;51.640;5.554;2023-09-12T03:07:23;27.90;;;21.40;;
59790;SDS011;47431;51.640;5.554;2023-09-12T03:09:48;36.08;;;23.02;;
59790;SDS011;47431;51.640;5.554;2023-09-12T03:12:14;78.78;;;24.10;;
59790;SDS011;47431;51.640;5.554;2023-09-12T03:14:40;31.42;;;21.30;;
59790;SDS011;47431;51.640;5.554;2023-09-12T03:17:05;41.58;;;24.02;;
59790;SDS011;47431;51.640;5.554;2023-09-12T03:19:31;35.78;;;23.27;;
59790;SDS011;47431;51.640;5.554;2023-09-12T03:21:56;35.08;;;22.95;;
59790;SDS011;47431;51.640;5.554;2023-09-12T03:24:22;40.05;;;27.58;;
59790;SDS011;47431;51.640;5.554;2023-09-12T03:26:49;28.92;;;19.33;;
59790;SDS011;47431;51.640;5.554;2023-09-12T03:29:15;253.40;;;31.83;;
59790;SDS011;47431;51.640;5.554;2023-09-12T03:31:40;34.30;;;20.73;;
59790;SDS011;47431;51.640;5.554;2023-09-12T03:34:06;147.57;;;35.80;;
59790;SDS011;47431;51.640;5.554;2023-09-12T03:36:31;56.10;;;29.48;;
59790;SDS011;47431;51.640;5.554;2023-09-12T03:38:56;54.30;;;26.33;;
59790;SDS011;47431;51.640;5.554;2023-09-12T03:41:22;110.82;;;30.70;;
59790;SDS011;47431;51.640;5.554;2023-09-12T03:43:50;36.20;;;23.55;;
59790;SDS011;47431;51.640;5.554;2023-09-12T03:46:18;49.95;;;23.42;;
59790;SDS011;47431;51.640;5.554;2023-09-12T03:48:43;50.85;;;22.92;;
59790;SDS011;47431;51.640;5.554;2023-09-12T03:51:08;59.30;;;21.00;;
59790;SDS011;47431;51.640;5.554;2023-09-12T03:53:34;90.22;;;22.08;;
59790;SDS011;47431;51.640;5.554;2023-09-12T03:55:59;105.15;;;22.50;;
59790;SDS011;47431;51.640;5.554;2023-09-12T03:58:24;143.25;;;29.02;;
59790;SDS011;47431;51.640;5.554;2023-09-12T04:00:50;54.72;;;21.45;;
59790;SDS011;47431;51.640;5.554;2023-09-12T04:03:15;123.43;;;22.25;;
59790;SDS011;47431;51.640;5.554;2023-09-12T04:05:41;65.10;;;22.55;;
59790;SDS011;47431;51.640;5.554;2023-09-12T04:08:07;66.05;;;20.25;;
59790;SDS011;47431;51.640;5.554;2023-09-12T04:10:32;40.80;;;20.20;;
59790;SDS011;47431;51.640;5.554;2023-09-12T04:12:57;35.47;;;18.58;;
59790;SDS011;47431;51.640;5.554;2023-09-12T04:15:23;144.00;;;24.88;;
59790;SDS011;47431;51.640;5.554;2023-09-12T04:17:48;30.98;;;18.05;;
59790;SDS011;47431;51.640;5.554;2023-09-12T04:20:14;45.35;;;23.27;;
59790;SDS011;47431;51.640;5.554;2023-09-12T04:22:40;50.95;;;25.92;;
59790;SDS011;47431;51.640;5.554;2023-09-12T04:25:07;54.88;;;29.30;;
59790;SDS011;47431;51.640;5.554;2023-09-12T04:27:32;80.10;;;31.27;;
59790;SDS011;47431;51.640;5.554;2023-09-12T04:29:59;85.53;;;33.20;;
59790;SDS011;47431;51.640;5.554;2023-09-12T04:32:24;48.75;;;28.70;;
59790;SDS011;47431;51.640;5.554;2023-09-12T04:34:50;47.13;;;28.88;;
59790;SDS011;47431;51.640;5.554;2023-09-12T04:37:15;52.40;;;30.77;;
59790;SDS011;47431;51.640;5.554;2023-09-12T04:39:41;54.13;;;33.67;;
59790;SDS011;47431;51.640;5.554;2023-09-12T04:42:06;67.15;;;36.08;;
59790;SDS011;47431;51.640;5.554;2023-09-12T04:44:39;71.72;;;38.65;;
59790;SDS011;47431;51.640;5.554;2023-09-12T04:47:05;89.22;;;39.33;;
59790;SDS011;47431;51.640;5.554;2023-09-12T04:49:30;72.80;;;40.50;;
59790;SDS011;47431;51.640;5.554;2023-09-12T04:51:56;76.65;;;39.53;;
59790;SDS011;47431;51.640;5.554;2023-09-12T04:54:21;99.72;;;44.70;;
59790;SDS011;47431;51.640;5.554;2023-09-12T04:56:46;86.68;;;43.72;;
59790;SDS011;47431;51.640;5.554;2023-09-12T04:59:12;111.95;;;44.55;;
59790;SDS011;47431;51.640;5.554;2023-09-12T05:01:38;83.75;;;41.75;;
59790;SDS011;47431;51.640;5.554;2023-09-12T05:04:03;90.60;;;41.60;;
59790;SDS011;47431;51.640;5.554;2023-09-12T05:06:28;76.20;;;39.13;;
59790;SDS011;47431;51.640;5.554;2023-09-12T05:08:54;76.85;;;39.15;;
59790;SDS011;47431;51.640;5.554;2023-09-12T05:11:19;57.63;;;31.33;;
59790;SDS011;47431;51.640;5.554;2023-09-12T05:13:46;71.95;;;34.80;;
59790;SDS011;47431;51.640;5.554;2023-09-12T05:16:12;52.67;;;29.58;;
59790;SDS011;47431;51.640;5.554;2023-09-12T05:18:37;67.20;;;33.28;;
59790;SDS011;47431;51.640;5.554;2023-09-12T05:21:02;73.28;;;31.20;;
59790;SDS011;47431;51.640;5.554;2023-09-12T05:23:28;59.33;;;30.90;;
59790;SDS011;47431;51.640;5.554;2023-09-12T05:25:53;59.33;;;33.97;;
59790;SDS011;47431;51.640;5.554;2023-09-12T05:28:19;61.55;;;30.95;;
59790;SDS011;47431;51.640;5.554;2023-09-12T05:30:44;66.43;;;34.55;;
59790;SDS011;47431;51.640;5.554;2023-09-12T05:33:09;69.65;;;35.75;;
59790;SDS011;47431;51.640;5.554;2023-09-12T05:35:35;67.25;;;36.10;;
59790;SDS011;47431;51.640;5.554;2023-09-12T05:38:01;71.30;;;34.97;;
59790;SDS011;47431;51.640;5.554;2023-09-12T05:40:27;53.17;;;29.83;;
59790;SDS011;47431;51.640;5.554;2023-09-12T05:42:52;54.22;;;28.95;;
59790;SDS011;47431;51.640;5.554;2023-09-12T05:45:18;78.45;;;34.17;;
59790;SDS011;47431;51.640;5.554;2023-09-12T05:47:43;73.30;;;36.13;;
59790;SDS011;47431;51.640;5.554;2023-09-12T05:50:09;71.30;;;36.25;;
59790;SDS011;47431;51.640;5.554;2023-09-12T05:52:34;79.30;;;40.42;;
59790;SDS011;47431;51.640;5.554;2023-09-12T05:54:59;63.05;;;37.08;;
59790;SDS011;47431;51.640;5.554;2023-09-12T05:57:25;60.72;;;33.25;;
59790;SDS011;47431;51.640;5.554;2023-09-12T05:59:50;75.45;;;40.03;;
59790;SDS011;47431;51.640;5.554;2023-09-12T06:02:15;71.25;;;35.45;;
59790;SDS011;47431;51.640;5.554;2023-09-12T06:04:42;70.95;;;35.88;;
59790;SDS011;47431;51.640;5.554;2023-09-12T06:07:08;75.40;;;38.17;;
59790;SDS011;47431;51.640;5.554;2023-09-12T06:09:33;94.40;;;41.85;;
59790;SDS011;47431;51.640;5.554;2023-09-12T06:11:59;96.15;;;42.00;;
59790;SDS011;47431;51.640;5.554;2023-09-12T06:14:24;74.22;;;40.10;;
59790;SDS011;47431;51.640;5.554;2023-09-12T06:16:49;78.75;;;40.70;;
59790;SDS011;47431;51.640;5.554;2023-09-12T06:19:15;85.28;;;39.63;;
59790;SDS011;47431;51.640;5.554;2023-09-12T06:21:40;87.22;;;41.15;;
59790;SDS011;47431;51.640;5.554;2023-09-12T06:24:19;78.43;;;38.03;;
59790;SDS011;47431;51.640;5.554;2023-09-12T06:26:48;88.35;;;41.58;;
59790;SDS011;47431;51.640;5.554;2023-09-12T06:29:14;86.72;;;39.30;;
59790;SDS011;47431;51.640;5.554;2023-09-12T06:31:39;81.45;;;43.67;;
59790;SDS011;47431;51.640;5.554;2023-09-12T06:34:06;70.10;;;41.15;;
59790;SDS011;47431;51.640;5.554;2023-09-12T06:36:32;95.22;;;45.42;;
59790;SDS011;47431;51.640;5.554;2023-09-12T06:38:58;82.63;;;41.65;;
59790;SDS011;47431;51.640;5.554;2023-09-12T06:41:25;91.25;;;42.55;;
59790;SDS011;47431;51.640;5.554;2023-09-12T06:43:51;76.03;;;40.15;;
59790;SDS011;47431;51.640;5.554;2023-09-12T06:46:17;82.88;;;43.00;;
59790;SDS011;47431;51.640;5.554;2023-09-12T06:48:46;82.85;;;42.75;;
59790;SDS011;47431;51.640;5.554;2023-09-12T06:51:11;78.75;;;43.25;;
59790;SDS011;47431;51.640;5.554;2023-09-12T06:53:37;82.45;;;44.38;;
59790;SDS011;47431;51.640;5.554;2023-09-12T06:56:06;83.90;;;46.78;;
59790;SDS011;47431;51.640;5.554;2023-09-12T06:58:31;84.15;;;42.38;;
59790;SDS011;47431;51.640;5.554;2023-09-12T07:01:04;109.55;;;59.58;;
59790;SDS011;47431;51.640;5.554;2023-09-12T07:03:33;93.47;;;56.85;;
59790;SDS011;47431;51.640;5.554;2023-09-12T07:05:59;113.05;;;62.22;;
59790;SDS011;47431;51.640;5.554;2023-09-12T07:08:25;118.57;;;69.13;;
59790;SDS011;47431;51.640;5.554;2023-09-12T07:10:50;128.30;;;73.57;;
59790;SDS011;47431;51.640;5.554;2023-09-12T07:13:18;117.15;;;73.63;;
59790;SDS011;47431;51.640;5.554;2023-09-12T07:15:43;117.65;;;64.93;;
59790;SDS011;47431;51.640;5.554;2023-09-12T07:18:09;99.90;;;60.90;;
59790;SDS011;47431;51.640;5.554;2023-09-12T07:20:34;107.55;;;57.85;;
59790;SDS011;47431;51.640;5.554;2023-09-12T07:23:00;105.90;;;56.95;;
59790;SDS011;47431;51.640;5.554;2023-09-12T07:25:25;106.53;;;58.55;;
59790;SDS011;47431;51.640;5.554;2023-09-12T07:27:51;106.18;;;55.58;;
59790;SDS011;47431;51.640;5.554;2023-09-12T07:30:17;106.15;;;54.83;;
59790;SDS011;47431;51.640;5.554;2023-09-12T07:32:42;106.65;;;55.65;;
59790;SDS011;47431;51.640;5.554;2023-09-12T07:35:08;99.47;;;53.28;;
59790;SDS011;47431;51.640;5.554;2023-09-12T07:37:33;105.95;;;53.80;;
59790;SDS011;47431;51.640;5.554;2023-09-12T07:39:58;84.50;;;47.95;;
59790;SDS011;47431;51.640;5.554;2023-09-12T07:42:24;107.55;;;52.00;;
59790;SDS011;47431;51.640;5.554;2023-09-12T07:44:49;96.00;;;49.47;;
59790;SDS011;47431;51.640;5.554;2023-09-12T07:47:15;93.28;;;48.92;;
59790;SDS011;47431;51.640;5.554;2023-09-12T07:49:41;83.65;;;46.10;;
59790;SDS011;47431;51.640;5.554;2023-09-12T07:52:06;88.70;;;46.70;;
59790;SDS011;47431;51.640;5.554;2023-09-12T07:54:32;87.78;;;46.50;;
59790;SDS011;47431;51.640;5.554;2023-09-12T07:56:57;80.38;;;47.00;;
59790;SDS011;47431;51.640;5.554;2023-09-12T07:59:23;71.30;;;40.83;;
59790;SDS011;47431;51.640;5.554;2023-09-12T08:01:48;77.70;;;45.13;;
59790;SDS011;47431;51.640;5.554;2023-09-12T08:04:13;72.82;;;43.53;;
59790;SDS011;47431;51.640;5.554;2023-09-12T08:06:39;82.80;;;47.95;;
59790;SDS011;47431;51.640;5.554;2023-09-12T08:09:06;86.55;;;48.13;;
59790;SDS011;47431;51.640;5.554;2023-09-12T08:11:32;79.72;;;46.63;;
59790;SDS011;47431;51.640;5.554;2023-09-12T08:13:57;67.53;;;41.83;;
59790;SDS011;47431;51.640;5.554;2023-09-12T08:16:22;60.25;;;39.33;;
59790;SDS011;47431;51.640;5.554;2023-09-12T08:18:48;51.47;;;41.38;;
59790;SDS011;47431;51.640;5.554;2023-09-12T08:21:13;50.55;;;37.67;;
59790;SDS011;47431;51.640;5.554;2023-09-12T08:23:39;48.72;;;33.63;;
59790;SDS011;47431;51.640;5.554;2023-09-12T08:26:04;36.65;;;29.35;;
59790;SDS011;47431;51.640;5.554;2023-09-12T08:28:29;37.50;;;28.00;;
59790;SDS011;47431;51.640;5.554;2023-09-12T08:30:55;29.67;;;25.23;;
59790;SDS011;47431;51.640;5.554;2023-09-12T08:33:20;29.48;;;23.48;;
59790;SDS011;47431;51.640;5.554;2023-09-12T08:35:46;29.88;;;23.40;;
59790;SDS011;47431;51.640;5.554;2023-09-12T08:38:11;30.27;;;21.88;;
59790;SDS011;47431;51.640;5.554;2023-09-12T08:40:37;23.55;;;19.48;;
59790;SDS011;47431;51.640;5.554;2023-09-12T08:43:03;24.02;;;19.25;;
59790;SDS011;47431;51.640;5.554;2023-09-12T08:45:29;19.45;;;17.38;;
59790;SDS011;47431;51.640;5.554;2023-09-12T08:47:55;25.35;;;18.73;;
59790;SDS011;47431;51.640;5.554;2023-09-12T08:50:22;22.30;;;18.75;;
59790;SDS011;47431;51.640;5.554;2023-09-12T08:52:48;20.13;;;17.15;;
59790;SDS011;47431;51.640;5.554;2023-09-12T08:55:14;23.30;;;17.67;;
59790;SDS011;47431;51.640;5.554;2023-09-12T08:57:40;20.40;;;16.58;;
59790;SDS011;47431;51.640;5.554;2023-09-12T09:00:07;18.17;;;16.25;;
59790;SDS011;47431;51.640;5.554;2023-09-12T09:02:35;21.80;;;15.50;;
59790;SDS011;47431;51.640;5.554;2023-09-12T09:05:03;19.65;;;16.77;;
59790;SDS011;47431;51.640;5.554;2023-09-12T09:07:31;18.13;;;16.00;;
59790;SDS011;47431;51.640;5.554;2023-09-12T09:10:00;21.52;;;15.95;;
59790;SDS011;47431;51.640;5.554;2023-09-12T09:12:28;16.45;;;14.73;;
59790;SDS011;47431;51.640;5.554;2023-09-12T09:14:54;16.73;;;14.68;;
59790;SDS011;47431;51.640;5.554;2023-09-12T09:17:19;17.77;;;14.48;;
59790;SDS011;47431;51.640;5.554;2023-09-12T09:19:45;21.95;;;15.55;;
59790;SDS011;47431;51.640;5.554;2023-09-12T09:22:11;18.42;;;16.40;;
59790;SDS011;47431;51.640;5.554;2023-09-12T09:24:36;18.58;;;16.30;;
59790;SDS011;47431;51.640;5.554;2023-09-12T09:27:01;19.73;;;15.70;;
59790;SDS011;47431;51.640;5.554;2023-09-12T09:29:27;21.80;;;17.33;;
59790;SDS011;47431;51.640;5.554;2023-09-12T09:31:59;18.40;;;16.35;;
59790;SDS011;47431;51.640;5.554;2023-09-12T09:34:30;19.85;;;15.63;;
59790;SDS011;47431;51.640;5.554;2023-09-12T09:36:57;21.83;;;16.80;;
59790;SDS011;47431;51.640;5.554;2023-09-12T09:39:23;19.50;;;16.40;;
59790;SDS011;47431;51.640;5.554;2023-09-12T09:41:51;18.20;;;16.10;;
59790;SDS011;47431;51.640;5.554;2023-09-12T09:44:24;19.60;;;17.30;;
59790;SDS011;47431;51.640;5.554;2023-09-12T09:46:55;20.08;;;16.85;;
59790;SDS011;47431;51.640;5.554;2023-09-12T09:49:25;18.75;;;14.52;;
59790;SDS011;47431;51.640;5.554;2023-09-12T09:51:50;22.13;;;14.88;;
59790;SDS011;47431;51.640;5.554;2023-09-12T09:54:19;16.65;;;14.60;;
59790;SDS011;47431;51.640;5.554;2023-09-12T09:56:53;15.38;;;13.52;;
59790;SDS011;47431;51.640;5.554;2023-09-12T09:59:23;19.17;;;14.00;;
59790;SDS011;47431;51.640;5.554;2023-09-12T10:01:50;16.45;;;14.00;;
59790;SDS011;47431;51.640;5.554;2023-09-12T10:04:16;19.40;;;15.43;;
59790;SDS011;47431;51.640;5.554;2023-09-12T10:06:43;20.58;;;16.83;;
59790;SDS011;47431;51.640;5.554;2023-09-12T10:09:11;18.15;;;16.25;;
59790;SDS011;47431;51.640;5.554;2023-09-12T10:11:42;20.42;;;14.38;;
59790;SDS011;47431;51.640;5.554;2023-09-12T10:14:08;12.50;;;11.15;;
59790;SDS011;47431;51.640;5.554;2023-09-12T10:16:39;16.63;;;13.82;;
59790;SDS011;47431;51.640;5.554;2023-09-12T10:19:12;14.93;;;12.95;;
59790;SDS011;47431;51.640;5.554;2023-09-12T10:24:48;13.55;;;10.55;;
59790;SDS011;47431;51.640;5.554;2023-09-12T10:27:15;11.70;;;9.38;;
59790;SDS011;47431;51.640;5.554;2023-09-12T10:29:44;15.15;;;13.18;;
59790;SDS011;47431;51.640;5.554;2023-09-12T10:32:12;13.57;;;11.80;;
59790;SDS011;47431;51.640;5.554;2023-09-12T10:34:39;17.88;;;10.50;;
59790;SDS011;47431;51.640;5.554;2023-09-12T10:37:09;14.93;;;10.98;;
59790;SDS011;47431;51.640;5.554;2023-09-12T10:39:40;13.57;;;10.00;;
59790;SDS011;47431;51.640;5.554;2023-09-12T10:42:07;13.18;;;9.70;;
59790;SDS011;47431;51.640;5.554;2023-09-12T10:44:34;14.05;;;9.70;;
59790;SDS011;47431;51.640;5.554;2023-09-12T10:47:00;12.10;;;10.68;;
59790;SDS011;47431;51.640;5.554;2023-09-12T10:49:26;11.07;;;8.25;;
59790;SDS011;47431;51.640;5.554;2023-09-12T10:51:52;9.23;;;7.15;;
59790;SDS011;47431;51.640;5.554;2023-09-12T10:54:25;12.23;;;9.00;;
59790;SDS011;47431;51.640;5.554;2023-09-12T10:57:07;11.80;;;8.90;;
59790;SDS011;47431;51.640;5.554;2023-09-12T11:00:23;11.63;;;9.07;;
59790;SDS011;47431;51.640;5.554;2023-09-12T11:02:31;12.80;;;9.63;;
59790;SDS011;47431;51.640;5.554;2023-09-12T11:04:58;11.23;;;9.27;;
59790;SDS011;47431;51.640;5.554;2023-09-12T11:07:31;14.70;;;11.73;;
59790;SDS011;47431;51.640;5.554;2023-09-12T11:12:44;13.80;;;12.43;;
59790;SDS011;47431;51.640;5.554;2023-09-12T11:15:11;16.65;;;14.95;;
59790;SDS011;47431;51.640;5.554;2023-09-12T11:17:40;14.82;;;13.25;;
59790;SDS011;47431;51.640;5.554;2023-09-12T11:20:07;14.93;;;13.32;;
59790;SDS011;47431;51.640;5.554;2023-09-12T11:22:37;14.75;;;12.05;;
59790;SDS011;47431;51.640;5.554;2023-09-12T11:25:16;15.70;;;10.65;;
59790;SDS011;47431;51.640;5.554;2023-09-12T11:30:17;13.55;;;10.75;;
59790;SDS011;47431;51.640;5.554;2023-09-12T11:32:43;12.55;;;8.10;;
59790;SDS011;47431;51.640;5.554;2023-09-12T11:35:11;10.35;;;7.40;;
59790;SDS011;47431;51.640;5.554;2023-09-12T11:37:36;7.78;;;5.20;;
59790;SDS011;47431;51.640;5.554;2023-09-12T11:40:06;8.57;;;5.72;;
59790;SDS011;47431;51.640;5.554;2023-09-12T11:42:42;7.68;;;5.30;;
59790;SDS011;47431;51.640;5.554;2023-09-12T11:45:09;10.88;;;8.38;;
59790;SDS011;47431;51.640;5.554;2023-09-12T11:47:44;9.77;;;6.68;;
59790;SDS011;47431;51.640;5.554;2023-09-12T11:53:06;9.65;;;6.60;;
59790;SDS011;47431;51.640;5.554;2023-09-12T11:55:43;8.68;;;7.07;;
59790;SDS011;47431;51.640;5.554;2023-09-12T11:58:18;9.88;;;6.88;;
59790;SDS011;47431;51.640;5.554;2023-09-12T12:00:45;9.88;;;6.10;;
59790;SDS011;47431;51.640;5.554;2023-09-12T12:03:15;14.02;;;7.80;;
59790;SDS011;47431;51.640;5.554;2023-09-12T12:05:41;8.98;;;5.93;;
59790;SDS011;47431;51.640;5.554;2023-09-12T12:08:07;11.43;;;8.65;;
59790;SDS011;47431;51.640;5.554;2023-09-12T12:10:34;16.77;;;12.40;;
59790;SDS011;47431;51.640;5.554;2023-09-12T12:12:59;12.35;;;9.88;;
59790;SDS011;47431;51.640;5.554;2023-09-12T12:15:27;11.57;;;9.43;;
59790;SDS011;47431;51.640;5.554;2023-09-12T12:17:55;13.98;;;10.57;;
59790;SDS011;47431;51.640;5.554;2023-09-12T12:20:21;18.48;;;9.48;;
59790;SDS011;47431;51.640;5.554;2023-09-12T12:22:47;13.60;;;8.20;;
59790;SDS011;47431;51.640;5.554;2023-09-12T12:25:13;11.85;;;8.48;;
59790;SDS011;47431;51.640;5.554;2023-09-12T12:27:40;9.45;;;6.82;;
59790;SDS011;47431;51.640;5.554;2023-09-12T12:30:07;9.60;;;6.68;;
59790;SDS011;47431;51.640;5.554;2023-09-12T12:32:42;8.25;;;5.70;;
59790;SDS011;47431;51.640;5.554;2023-09-12T12:35:09;8.15;;;4.72;;
59790;SDS011;47431;51.640;5.554;2023-09-12T12:37:35;6.95;;;4.70;;
59790;SDS011;47431;51.640;5.554;2023-09-12T12:40:02;8.38;;;4.60;;
59790;SDS011;47431;51.640;5.554;2023-09-12T12:42:34;7.57;;;4.97;;
59790;SDS011;47431;51.640;5.554;2023-09-12T12:45:10;10.07;;;4.20;;
59790;SDS011;47431;51.640;5.554;2023-09-12T12:47:36;6.28;;;4.03;;
59790;SDS011;47431;51.640;5.554;2023-09-12T12:50:02;8.00;;;4.18;;
59790;SDS011;47431;51.640;5.554;2023-09-12T12:52:35;6.65;;;3.70;;
59790;SDS011;47431;51.640;5.554;2023-09-12T12:55:12;9.25;;;5.35;;
59790;SDS011;47431;51.640;5.554;2023-09-12T12:57:38;8.13;;;5.20;;
59790;SDS011;47431;51.640;5.554;2023-09-12T13:00:14;8.60;;;6.13;;
59790;SDS011;47431;51.640;5.554;2023-09-12T13:02:41;7.88;;;5.45;;
59790;SDS011;47431;51.640;5.554;2023-09-12T13:05:19;10.63;;;6.40;;
59790;SDS011;47431;51.640;5.554;2023-09-12T13:07:47;5.75;;;3.67;;
59790;SDS011;47431;51.640;5.554;2023-09-12T13:10:14;6.43;;;4.18;;
59790;SDS011;47431;51.640;5.554;2023-09-12T13:12:39;9.25;;;5.18;;
59790;SDS011;47431;51.640;5.554;2023-09-12T13:15:04;7.60;;;5.65;;
59790;SDS011;47431;51.640;5.554;2023-09-12T13:17:30;10.25;;;6.00;;
59790;SDS011;47431;51.640;5.554;2023-09-12T13:19:56;9.52;;;6.45;;
59790;SDS011;47431;51.640;5.554;2023-09-12T13:22:21;12.93;;;6.50;;
59790;SDS011;47431;51.640;5.554;2023-09-12T13:24:46;11.23;;;8.05;;
59790;SDS011;47431;51.640;5.554;2023-09-12T13:27:12;12.57;;;9.43;;
59790;SDS011;47431;51.640;5.554;2023-09-12T13:29:38;11.90;;;9.35;;
59790;SDS011;47431;51.640;5.554;2023-09-12T13:32:04;12.52;;;8.20;;
59790;SDS011;47431;51.640;5.554;2023-09-12T13:34:29;13.82;;;9.40;;
59790;SDS011;47431;51.640;5.554;2023-09-12T13:36:54;14.13;;;8.60;;
59790;SDS011;47431;51.640;5.554;2023-09-12T13:39:22;12.98;;;9.02;;
59790;SDS011;47431;51.640;5.554;2023-09-12T13:41:47;10.32;;;7.10;;
59790;SDS011;47431;51.640;5.554;2023-09-12T13:44:12;10.00;;;6.82;;
59790;SDS011;47431;51.640;5.554;2023-09-12T13:46:39;13.40;;;8.70;;
59790;SDS011;47431;51.640;5.554;2023-09-12T13:49:11;12.90;;;9.82;;
59790;SDS011;47431;51.640;5.554;2023-09-12T13:51:36;11.50;;;8.48;;
59790;SDS011;47431;51.640;5.554;2023-09-12T13:54:01;12.93;;;8.48;;
59790;SDS011;47431;51.640;5.554;2023-09-12T13:56:28;11.00;;;8.25;;
59790;SDS011;47431;51.640;5.554;2023-09-12T13:58:53;11.63;;;7.72;;
59790;SDS011;47431;51.640;5.554;2023-09-12T14:01:19;15.80;;;9.88;;
59790;SDS011;47431;51.640;5.554;2023-09-12T14:03:45;14.57;;;10.55;;
59790;SDS011;47431;51.640;5.554;2023-09-12T14:06:10;12.73;;;9.07;;
59790;SDS011;47431;51.640;5.554;2023-09-12T14:08:35;13.32;;;7.80;;
59790;SDS011;47431;51.640;5.554;2023-09-12T14:11:01;9.38;;;7.90;;
59790;SDS011;47431;51.640;5.554;2023-09-12T14:13:26;13.73;;;8.43;;
59790;SDS011;47431;51.640;5.554;2023-09-12T14:15:51;15.50;;;8.98;;
59790;SDS011;47431;51.640;5.554;2023-09-12T14:18:17;11.32;;;7.95;;
59790;SDS011;47431;51.640;5.554;2023-09-12T14:20:42;12.45;;;7.40;;
59790;SDS011;47431;51.640;5.554;2023-09-12T14:23:08;12.40;;;7.82;;
59790;SDS011;47431;51.640;5.554;2023-09-12T14:25:33;9.55;;;7.80;;
59790;SDS011;47431;51.640;5.554;2023-09-12T14:27:58;10.65;;;7.60;;
59790;SDS011;47431;51.640;5.554;2023-09-12T14:30:24;10.70;;;7.00;;
59790;SDS011;47431;51.640;5.554;2023-09-12T14:32:58;12.98;;;7.30;;
59790;SDS011;47431;51.640;5.554;2023-09-12T14:35:24;10.20;;;6.85;;
59790;SDS011;47431;51.640;5.554;2023-09-12T14:37:49;9.48;;;6.93;;
59790;SDS011;47431;51.640;5.554;2023-09-12T14:40:15;11.30;;;6.30;;
59790;SDS011;47431;51.640;5.554;2023-09-12T14:42:42;10.10;;;7.38;;